createdAt,value
2023-02-12T00:00:16.422Z,97861.66
2023-02-12T00:02:43.958Z,97849.22
2023-02-12T00:05:11.656Z,97847.94
2023-02-12T00:07:39.246Z,97843.59
2023-02-12T00:10:07.806Z,97839.88
2023-02-12T00:12:35.213Z,97838.91
2023-02-12T00:15:04.242Z,97841.00
2023-02-12T00:17:31.663Z,97847.63
2023-02-12T00:19:59.162Z,97835.03
2023-02-12T00:22:27.865Z,97849.22
2023-02-12T00:24:55.261Z,97839.09
2023-02-12T00:27:22.946Z,97835.69
2023-02-12T00:29:50.489Z,97847.63
2023-02-12T00:32:19.793Z,97798.75
2023-02-12T00:34:47.534Z,97832.31
2023-02-12T00:37:15.723Z,97841.16
2023-02-12T00:39:44.106Z,97829.22
2023-02-12T00:42:11.856Z,97851.16
2023-02-12T00:44:39.343Z,97844.69
2023-02-12T00:47:06.844Z,97846.19
2023-02-12T00:49:35.640Z,97846.00
2023-02-12T00:52:04.731Z,97839.41
2023-02-12T00:54:32.855Z,97846.19
2023-02-12T00:57:00.357Z,97830.69
2023-02-12T00:59:28.737Z,97847.16
2023-02-12T01:01:56.745Z,97845.22
2023-02-12T01:04:24.266Z,97848.25
2023-02-12T01:06:53.045Z,97844.25
2023-02-12T01:09:20.484Z,97850.34
2023-02-12T01:11:47.929Z,97820.38
2023-02-12T01:14:15.376Z,97848.91
2023-02-12T01:16:42.997Z,97848.91
2023-02-12T01:19:12.926Z,97844.22
2023-02-12T01:21:40.528Z,97855.84
2023-02-12T01:24:09.386Z,97845.53
2023-02-12T01:26:36.822Z,97851.97
2023-02-12T01:29:06.936Z,97848.59
2023-02-12T01:31:37.310Z,97856.00
2023-02-12T01:34:06.844Z,97850.06
2023-02-12T01:36:34.689Z,97847.63
2023-02-12T01:39:03.606Z,97795.84
2023-02-12T01:41:35.860Z,97841.50
2023-02-12T01:44:13.878Z,97836.31
2023-02-12T01:46:41.862Z,97837.63
2023-02-12T01:49:13.417Z,97838.13
2023-02-12T01:51:43.243Z,97828.91
2023-02-12T01:54:14.238Z,97840.19
2023-02-12T01:56:43.943Z,97838.75
2023-02-12T01:59:12.836Z,97832.94
2023-02-12T02:01:40.492Z,97826.50
2023-02-12T02:04:12.803Z,97833.91
2023-02-12T02:06:48.179Z,97828.56
2023-02-12T02:09:15.882Z,97813.41
2023-02-12T02:12:02.127Z,97838.91
2023-02-12T02:14:35.687Z,97834.88
2023-02-12T02:17:25.323Z,97829.25
2023-02-12T02:20:17.825Z,97835.03
2023-02-12T02:22:52.785Z,97829.41
2023-02-12T02:25:54.168Z,97826.50
2023-02-12T02:28:40.914Z,97819.41
2023-02-12T02:31:17.659Z,97825.34
2023-02-12T02:33:53.631Z,97825.34
2023-02-12T02:36:28.779Z,97821.97
2023-02-12T02:39:04.121Z,97821.34
2023-02-12T02:41:36.063Z,97817.94
2023-02-12T02:44:08.953Z,97819.22
2023-02-12T02:46:43.499Z,97826.00
2023-02-12T02:49:17.773Z,97823.28
2023-02-12T02:51:51.551Z,97816.31
2023-02-12T02:54:22.926Z,97811.34
2023-02-12T02:56:54.388Z,97803.91
2023-02-12T02:59:27.202Z,97814.38
2023-02-12T03:02:00.948Z,97802.44
2023-02-12T03:04:34.001Z,97817.47
2023-02-12T03:07:07.430Z,97802.78
2023-02-12T03:09:40.085Z,97821.16
2023-02-12T03:12:13.366Z,97813.75
2023-02-12T03:14:45.074Z,97797.63
2023-02-12T03:17:17.814Z,97815.03
2023-02-12T03:19:51.699Z,97811.97
2023-02-12T03:22:24.132Z,97813.28
2023-02-12T03:24:57.041Z,97803.41
2023-02-12T03:27:30.923Z,97786.34
2023-02-12T03:29:59.470Z,97813.09
2023-02-12T03:32:34.796Z,97806.97
2023-02-12T03:35:11.695Z,97766.81
2023-02-12T03:37:44.883Z,97806.00
2023-02-12T03:40:18.530Z,97799.22
2023-02-12T03:42:56.377Z,97815.03
2023-02-12T03:45:37.551Z,97763.78
2023-02-12T03:48:12.324Z,97796.31
2023-02-12T03:50:46.745Z,97809.41
2023-02-12T03:53:14.211Z,97798.44
2023-02-12T03:55:46.220Z,97798.91
2023-02-12T03:58:18.904Z,97805.22
2023-02-12T04:00:46.976Z,97785.72
2023-02-12T04:03:15.969Z,97801.81
2023-02-12T04:05:43.542Z,97807.94
2023-02-12T04:08:13.240Z,97804.88
2023-02-12T04:10:53.942Z,97814.38
2023-02-12T04:13:27.234Z,97794.41
2023-02-12T04:16:08.237Z,97808.59
2023-02-12T04:18:42.917Z,97811.16
2023-02-12T04:21:17.688Z,97796.63
2023-02-12T04:23:51.487Z,97813.75
2023-02-12T04:26:24.738Z,97817.28
2023-02-12T04:29:00.497Z,97813.91
2023-02-12T04:31:32.581Z,97824.06
2023-02-12T04:34:12.373Z,97814.38
2023-02-12T04:36:46.090Z,97820.50
2023-02-12T04:39:21.150Z,97826.16
2023-02-12T04:41:48.915Z,97820.19
2023-02-12T04:44:23.468Z,97817.97
2023-02-12T04:46:50.934Z,97818.94
2023-02-12T04:49:22.040Z,97826.81
2023-02-12T04:51:50.376Z,97828.28
2023-02-12T04:54:19.353Z,97834.88
2023-02-12T04:56:47.395Z,97825.19
2023-02-12T04:59:15.388Z,97834.22
2023-02-12T05:01:44.108Z,97835.03
2023-02-12T05:04:13.709Z,97844.22
2023-02-12T05:06:43.362Z,97846.16
2023-02-12T05:09:14.089Z,97846.16
2023-02-12T05:11:41.586Z,97844.22
2023-02-12T05:14:09.024Z,97833.41
2023-02-12T05:16:36.590Z,97846.00
2023-02-12T05:19:04.022Z,97833.91
2023-02-12T05:21:31.489Z,97838.09
2023-02-12T05:24:02.138Z,97835.19
2023-02-12T05:26:29.782Z,97841.66
2023-02-12T05:28:57.698Z,97791.84
2023-02-12T05:31:25.330Z,97848.56
2023-02-12T05:33:52.826Z,97845.19
2023-02-12T05:36:22.621Z,97849.22
2023-02-12T05:38:50.982Z,97823.13
2023-02-12T05:41:21.923Z,97855.19
2023-02-12T05:43:50.371Z,97847.78
2023-02-12T05:46:18.931Z,97839.84
2023-02-12T05:48:47.268Z,97843.56
2023-02-12T05:51:16.904Z,97821.28
2023-02-12T05:53:44.604Z,97850.03
2023-02-12T05:56:16.146Z,97853.44
2023-02-12T05:58:46.947Z,97840.19
2023-02-12T06:01:17.041Z,97839.53
2023-02-12T06:03:44.960Z,97832.28
2023-02-12T06:06:13.421Z,97841.78
2023-02-12T06:08:41.553Z,97823.25
2023-02-12T06:11:13.838Z,97836.31
2023-02-12T06:13:41.943Z,97845.03
2023-02-12T06:16:18.864Z,97847.78
2023-02-12T06:18:46.562Z,97831.47
2023-02-12T06:21:14.401Z,97787.31
2023-02-12T06:23:42.018Z,97804.09
2023-02-12T06:26:09.978Z,97841.34
2023-02-12T06:28:38.083Z,97845.53
2023-02-12T06:31:18.846Z,97825.50
2023-02-12T06:33:46.684Z,97814.72
2023-02-12T06:36:14.482Z,97814.53
2023-02-12T06:38:42.074Z,97789.38
2023-02-12T06:41:09.781Z,97828.91
2023-02-12T06:43:37.752Z,97853.06
2023-02-12T06:46:06.630Z,97858.22
2023-02-12T06:48:36.016Z,97822.13
2023-02-12T06:51:08.709Z,97863.56
2023-02-12T06:53:38.561Z,97863.75
2023-02-12T06:56:11.102Z,97863.56
2023-02-12T06:58:39.305Z,97872.13
2023-02-12T07:01:13.199Z,97868.56
2023-02-12T07:03:42.686Z,97850.53
2023-02-12T07:06:11.025Z,97857.63
2023-02-12T07:08:38.629Z,97826.63
2023-02-12T07:11:07.082Z,97884.06
2023-02-12T07:13:35.164Z,97886.50
2023-02-12T07:16:07.080Z,97881.47
2023-02-12T07:18:34.730Z,97880.69
2023-02-12T07:21:03.939Z,97894.06
2023-02-12T07:23:31.369Z,97890.19
2023-02-12T07:25:59.502Z,97887.47
2023-02-12T07:28:27.755Z,97894.91
2023-02-12T07:30:55.475Z,97896.50
2023-02-12T07:33:22.918Z,97896.50
2023-02-12T07:35:50.364Z,97899.22
2023-02-12T07:38:19.173Z,97899.88
2023-02-12T07:40:46.608Z,97887.81
2023-02-12T07:43:14.032Z,97900.53
2023-02-12T07:45:41.493Z,97896.66
2023-02-12T07:48:09.000Z,97899.41
2023-02-12T07:50:36.416Z,97890.53
2023-02-12T07:53:03.821Z,97887.63
2023-02-12T07:55:32.558Z,97888.78
2023-02-12T07:57:59.948Z,97896.53
2023-02-12T08:00:27.402Z,97897.94
2023-02-12T08:02:55.291Z,97902.16
2023-02-12T08:05:22.704Z,97889.75
2023-02-12T08:07:50.307Z,97910.88
2023-02-12T08:10:22.118Z,97905.56
2023-02-12T08:12:50.884Z,97909.44
2023-02-12T08:15:18.311Z,97900.38
2023-02-12T08:17:45.724Z,97912.81
2023-02-12T08:20:13.838Z,97913.75
2023-02-12T08:22:41.277Z,97906.63
2023-02-12T08:25:09.197Z,97914.50
2023-02-12T08:27:36.629Z,97900.59
2023-02-12T08:30:05.713Z,97904.47
2023-02-12T08:32:33.701Z,97906.59
2023-02-12T08:35:01.101Z,97897.66
2023-02-12T08:37:28.513Z,97901.81
2023-02-12T08:39:55.898Z,97912.00
2023-02-12T08:42:25.571Z,97918.31
2023-02-12T08:44:52.988Z,97914.59
2023-02-12T08:47:21.728Z,97922.66
2023-02-12T08:49:49.131Z,97920.03
2023-02-12T08:52:16.528Z,97911.13
2023-02-12T08:54:43.910Z,97908.69
2023-02-12T08:57:11.361Z,97910.44
2023-02-12T08:59:38.765Z,97905.25
2023-02-12T09:02:08.651Z,97905.06
2023-02-12T09:04:37.620Z,97907.16
2023-02-12T09:07:05.020Z,97908.44
2023-02-12T09:09:32.416Z,97901.31
2023-02-12T09:11:59.828Z,97902.63
2023-02-12T09:14:27.281Z,97909.22
2023-02-12T09:16:57.154Z,97899.06
2023-02-12T09:19:24.854Z,97900.00
2023-02-12T09:21:56.125Z,97910.13
2023-02-12T09:24:24.280Z,97886.41
2023-02-12T09:26:51.703Z,97900.25
2023-02-12T09:29:19.099Z,97898.16
2023-02-12T09:31:46.663Z,97896.97
2023-02-12T09:34:14.138Z,97896.63
2023-02-12T09:36:41.578Z,97908.31
2023-02-12T09:39:10.438Z,97907.97
2023-02-12T09:42:01.733Z,97898.88
2023-02-12T09:44:37.097Z,97907.38
2023-02-12T09:47:07.706Z,97894.50
2023-02-12T09:49:50.689Z,97898.69
2023-02-12T09:52:20.601Z,97883.16
2023-02-12T09:54:50.645Z,97896.38
2023-02-12T09:57:21.938Z,97913.09
2023-02-12T09:59:53.641Z,97908.53
2023-02-12T10:02:23.880Z,97921.97
2023-02-12T10:05:01.148Z,97926.44
2023-02-12T10:07:54.450Z,97925.19
2023-02-12T10:10:34.752Z,97928.03
2023-02-12T10:13:06.281Z,97934.03
2023-02-12T10:15:39.635Z,97926.38
2023-02-12T10:18:33.661Z,97940.59
2023-02-12T10:21:12.928Z,97945.91
2023-02-12T10:24:06.660Z,97943.41
2023-02-12T10:26:39.607Z,97936.16
2023-02-12T10:29:13.781Z,97937.88
2023-02-12T10:31:44.974Z,97935.34
2023-02-12T10:34:23.126Z,97925.88
2023-02-12T10:36:52.666Z,97928.25
2023-02-12T10:39:23.819Z,97937.00
2023-02-12T10:41:59.277Z,97936.09
2023-02-12T10:44:27.159Z,97935.31
2023-02-12T10:46:55.138Z,97936.94
2023-02-12T10:49:22.672Z,97935.13
2023-02-12T10:52:01.805Z,97925.16
2023-02-12T10:54:34.915Z,97924.53
2023-02-12T10:57:10.802Z,97917.69
2023-02-12T10:59:38.336Z,97915.22
2023-02-12T11:02:17.927Z,97920.06
2023-02-12T11:04:45.399Z,97924.19
2023-02-12T11:07:12.896Z,97926.78
2023-02-12T11:09:45.333Z,97931.31
2023-02-12T11:12:26.349Z,97922.22
2023-02-12T11:14:56.316Z,97914.09
2023-02-12T11:17:31.636Z,97917.91
2023-02-12T11:20:20.427Z,97914.72
2023-02-12T11:22:53.413Z,97910.22
2023-02-12T11:25:22.194Z,97909.06
2023-02-12T11:28:06.945Z,97904.97
2023-02-12T11:30:34.756Z,97889.09
2023-02-12T11:33:23.545Z,97901.25
2023-02-12T11:35:54.676Z,97866.03
2023-02-12T11:38:29.402Z,97882.56
2023-02-12T11:41:20.383Z,97872.88
2023-02-12T11:43:50.068Z,97878.34
2023-02-12T11:46:22.277Z,97886.66
2023-02-12T11:48:50.568Z,97865.81
2023-02-12T11:51:22.738Z,97866.28
2023-02-12T11:53:52.598Z,97873.50
2023-02-12T11:56:20.751Z,97871.72
2023-02-12T11:58:50.919Z,97870.28
2023-02-12T12:01:22.841Z,97868.03
2023-02-12T12:03:56.853Z,97870.34
2023-02-12T12:06:30.172Z,97861.06
2023-02-12T12:09:04.747Z,97855.88
2023-02-12T12:11:40.197Z,97862.56
2023-02-12T12:14:17.668Z,97861.22
2023-02-12T12:17:08.595Z,97862.47
2023-02-12T12:19:54.695Z,97854.16
2023-02-12T12:22:30.808Z,97834.44
2023-02-12T12:25:06.450Z,97840.41
2023-02-12T12:27:59.763Z,97847.50
2023-02-12T12:30:38.624Z,97842.00
2023-02-12T12:33:11.311Z,97842.59
2023-02-12T12:35:47.532Z,97825.00
2023-02-12T12:38:26.536Z,97832.94
2023-02-12T12:41:03.749Z,97832.69
2023-02-12T12:43:42.619Z,97825.44
2023-02-12T12:46:30.758Z,97824.97
2023-02-12T12:49:29.619Z,97822.22
2023-02-12T12:52:11.786Z,97827.91
2023-02-12T12:54:56.551Z,97827.41
2023-02-12T12:57:38.131Z,97827.13
2023-02-12T13:00:31.919Z,97825.88
2023-02-12T13:03:20.331Z,97804.03
2023-02-12T13:06:04.034Z,97818.00
2023-02-12T13:08:56.639Z,97824.19
2023-02-12T13:11:36.018Z,97821.56
2023-02-12T13:14:14.706Z,97812.69
2023-02-12T13:16:49.056Z,97805.53
2023-02-12T13:19:28.886Z,97810.31
2023-02-12T13:22:02.976Z,97797.75
2023-02-12T13:24:37.320Z,97801.19
2023-02-12T13:27:08.651Z,97800.91
2023-02-12T13:29:39.491Z,97800.47
2023-02-12T13:32:13.050Z,97789.69
2023-02-12T13:34:44.153Z,97792.34
2023-02-12T13:37:18.440Z,97786.63
2023-02-12T13:39:49.498Z,97786.41
2023-02-12T13:42:28.410Z,97781.78
2023-02-12T13:45:01.834Z,97786.03
2023-02-12T13:47:43.229Z,97771.72
2023-02-12T13:50:21.516Z,97777.66
2023-02-12T13:52:55.232Z,97781.31
2023-02-12T13:55:26.557Z,97784.69
2023-02-12T13:58:31.175Z,97785.06
2023-02-12T14:01:00.738Z,97757.56
2023-02-12T14:03:30.646Z,97767.00
2023-02-12T14:06:16.429Z,97777.72
2023-02-12T14:08:45.903Z,97772.94
2023-02-12T14:11:17.268Z,97763.50
2023-02-12T14:13:54.213Z,97779.09
2023-02-12T14:16:40.620Z,97776.38
2023-02-12T14:19:40.172Z,97776.66
2023-02-12T14:22:35.539Z,97765.41
2023-02-12T14:25:32.048Z,97773.81
2023-02-12T14:28:07.446Z,97772.16
2023-02-12T14:30:39.046Z,97749.69
2023-02-12T14:33:26.515Z,97764.41
2023-02-12T14:36:30.490Z,97769.81
2023-02-12T14:39:00.152Z,97754.84
2023-02-12T14:41:43.988Z,97769.84
2023-02-12T14:44:55.812Z,97763.38
2023-02-12T14:47:53.667Z,97766.75
2023-02-12T14:50:25.921Z,97770.78
2023-02-12T14:52:57.497Z,97758.06
2023-02-12T14:55:28.497Z,97769.94
2023-02-12T14:58:00.791Z,97767.13
2023-02-12T15:00:35.136Z,97751.63
2023-02-12T15:03:14.902Z,97752.25
2023-02-12T15:05:44.570Z,97756.88
2023-02-12T15:08:20.358Z,97765.34
2023-02-12T15:10:51.215Z,97762.56
2023-02-12T15:13:29.354Z,97769.31
2023-02-12T15:16:01.232Z,97766.44
2023-02-12T15:18:34.729Z,97757.06
2023-02-12T15:21:12.798Z,97767.63
2023-02-12T15:23:42.921Z,97774.88
2023-02-12T15:26:16.166Z,97768.13
2023-02-12T15:28:48.314Z,97770.16
2023-02-12T15:31:17.912Z,97772.81
2023-02-12T15:33:48.726Z,97771.03
2023-02-12T15:36:19.980Z,97765.47
2023-02-12T15:38:50.526Z,97767.63
2023-02-12T15:41:30.179Z,97766.59
2023-02-12T15:43:59.954Z,97762.38
2023-02-12T15:46:27.414Z,97769.44
2023-02-12T15:48:55.372Z,97751.13
2023-02-12T15:51:30.971Z,97769.22
2023-02-12T15:54:00.431Z,97766.13
2023-02-12T15:56:28.770Z,97773.53
2023-02-12T15:59:00.295Z,97767.19
2023-02-12T16:01:29.390Z,97763.97
2023-02-12T16:03:58.871Z,97759.56
2023-02-12T16:06:29.307Z,97764.75
2023-02-12T16:09:00.022Z,97764.97
2023-02-12T16:11:29.563Z,97758.69
2023-02-12T16:14:02.471Z,97754.59
2023-02-12T16:16:32.380Z,97761.28
2023-02-12T16:19:09.154Z,97760.88
2023-02-12T16:21:39.398Z,97756.66
2023-02-12T16:24:26.282Z,97761.41
2023-02-12T16:26:54.392Z,97762.47
2023-02-12T16:29:23.150Z,97740.78
2023-02-12T16:31:54.868Z,97763.63
2023-02-12T16:34:34.491Z,97759.19
2023-02-12T16:37:02.534Z,97762.22
2023-02-12T16:40:16.263Z,97768.41
2023-02-12T16:43:01.738Z,97755.97
2023-02-12T16:45:38.377Z,97762.63
2023-02-12T16:48:17.018Z,97752.88
2023-02-12T16:50:49.001Z,97768.16
2023-02-12T16:53:43.542Z,97747.13
2023-02-12T16:56:17.953Z,97757.78
2023-02-12T16:58:48.182Z,97758.69
2023-02-12T17:01:23.410Z,97770.03
2023-02-12T17:03:51.865Z,97770.50
2023-02-12T17:06:21.277Z,97778.28
2023-02-12T17:08:48.999Z,97770.19
2023-02-12T17:11:17.714Z,97780.94
2023-02-12T17:13:46.988Z,97756.09
2023-02-12T17:16:29.514Z,97779.16
2023-02-12T17:18:59.685Z,97772.09
2023-02-12T17:21:29.662Z,97784.53
2023-02-12T17:23:57.144Z,97772.53
2023-02-12T17:26:25.725Z,97776.56
2023-02-12T17:28:53.143Z,97748.16
2023-02-12T17:31:21.135Z,97784.88
2023-02-12T17:33:48.679Z,97780.06
2023-02-12T17:36:17.494Z,97789.50
2023-02-12T17:38:44.948Z,97790.50
2023-02-12T17:41:12.396Z,97792.44
2023-02-12T17:43:39.794Z,97782.53
2023-02-12T17:46:10.096Z,97792.25
2023-02-12T17:48:37.846Z,97786.81
2023-02-12T17:51:05.623Z,97784.13
2023-02-12T17:53:34.368Z,97777.91
2023-02-12T17:56:01.802Z,97797.34
2023-02-12T17:58:29.314Z,97791.53
2023-02-12T18:00:57.091Z,97791.00
2023-02-12T18:03:24.748Z,97790.38
2023-02-12T18:05:52.688Z,97795.56
2023-02-12T18:08:20.086Z,97784.13
2023-02-12T18:10:48.823Z,97791.91
2023-02-12T18:13:16.272Z,97790.50
2023-02-12T18:15:43.696Z,97790.88
2023-02-12T18:18:11.141Z,97785.06
2023-02-12T18:20:40.985Z,97791.06
2023-02-12T18:23:09.225Z,97787.56
2023-02-12T18:25:40.412Z,97790.94
2023-02-12T18:28:09.316Z,97775.59
2023-02-12T18:30:38.763Z,97788.69
2023-02-12T18:33:06.759Z,97789.94
2023-02-12T18:35:34.495Z,97789.50
2023-02-12T18:38:02.200Z,97774.69
2023-02-12T18:40:29.826Z,97729.31
2023-02-12T18:42:59.503Z,97729.22
2023-02-12T18:45:28.528Z,97772.94
2023-02-12T18:47:56.170Z,97799.31
2023-02-12T18:50:23.863Z,97796.75
2023-02-12T18:52:51.409Z,97795.59
2023-02-12T18:55:19.061Z,97794.97
2023-02-12T18:57:46.761Z,97785.13
2023-02-12T19:00:15.153Z,97741.22
2023-02-12T19:02:44.038Z,97786.28
2023-02-12T19:05:11.928Z,97775.94
2023-02-12T19:07:39.497Z,97775.19
2023-02-12T19:10:16.962Z,97779.16
2023-02-12T19:12:44.514Z,97770.41
2023-02-12T19:15:13.324Z,97766.91
2023-02-12T19:17:41.027Z,97738.56
2023-02-12T19:20:11.697Z,97773.16
2023-02-12T19:22:39.722Z,97762.88
2023-02-12T19:25:12.822Z,97770.13
2023-02-12T19:27:40.672Z,97752.34
2023-02-12T19:30:10.389Z,97737.41
2023-02-12T19:32:38.770Z,97768.31
2023-02-12T19:35:06.852Z,97768.69
2023-02-12T19:37:38.173Z,97761.88
2023-02-12T19:40:06.897Z,97754.13
2023-02-12T19:42:34.530Z,97716.81
2023-02-12T19:45:02.285Z,97762.25
2023-02-12T19:47:29.786Z,97749.00
2023-02-12T19:49:57.313Z,97735.97
2023-02-12T19:52:25.125Z,97759.56
2023-02-12T19:54:56.196Z,97731.50
2023-02-12T19:57:23.875Z,97757.41
2023-02-12T19:59:53.555Z,97712.63
2023-02-12T20:02:21.120Z,97758.38
2023-02-12T20:04:48.697Z,97729.41
2023-02-12T20:07:16.272Z,97753.50
2023-02-12T20:09:43.879Z,97722.63
2023-02-12T20:12:12.987Z,97695.41
2023-02-12T20:14:40.601Z,97760.34
2023-02-12T20:17:08.128Z,97734.09
2023-02-12T20:19:35.888Z,97766.34
2023-02-12T20:22:08.707Z,97762.94
2023-02-12T20:24:36.316Z,97756.16
2023-02-12T20:27:04.893Z,97696.50
2023-02-12T20:29:33.876Z,97760.97
2023-02-12T20:32:01.581Z,97754.38
2023-02-12T20:34:30.431Z,97728.97
2023-02-12T20:36:59.115Z,97750.97
2023-02-12T20:39:26.664Z,97762.94
2023-02-12T20:41:54.242Z,97755.34
2023-02-12T20:44:22.941Z,97734.78
2023-02-12T20:46:56.544Z,97732.25
2023-02-12T20:49:25.241Z,97749.91
2023-02-12T20:51:53.198Z,97753.28
2023-02-12T20:54:20.941Z,97709.84
2023-02-12T20:56:50.136Z,97717.41
2023-02-12T20:59:18.325Z,97750.69
2023-02-12T21:01:48.401Z,97755.50
2023-02-12T21:04:19.576Z,97725.81
2023-02-12T21:06:48.224Z,97721.56
2023-02-12T21:09:16.152Z,97724.09
2023-02-12T21:11:45.679Z,97757.25
2023-02-12T21:14:23.827Z,97752.69
2023-02-12T21:16:52.711Z,97758.06
2023-02-12T21:19:28.172Z,97718.25
2023-02-12T21:21:55.846Z,97752.53
2023-02-12T21:24:27.096Z,97753.34
2023-02-12T21:26:56.061Z,97726.16
2023-02-12T21:29:26.492Z,97722.94
2023-02-12T21:31:55.197Z,97742.41
2023-02-12T21:34:24.609Z,97676.75
2023-02-12T21:36:54.732Z,97733.38
2023-02-12T21:39:25.994Z,97752.50
2023-02-12T21:41:54.923Z,97754.81
2023-02-12T21:44:23.993Z,97753.63
2023-02-12T21:46:51.810Z,97760.59
2023-02-12T21:49:24.725Z,97740.53
2023-02-12T21:51:54.909Z,97763.69
2023-02-12T21:54:22.709Z,97775.84
2023-02-12T21:56:51.360Z,97730.41
2023-02-12T21:59:19.563Z,97745.59
2023-02-12T22:01:49.328Z,97751.63
2023-02-12T22:04:17.816Z,97752.72
2023-02-12T22:06:47.093Z,97740.03
2023-02-12T22:09:18.129Z,97756.97
2023-02-12T22:11:45.787Z,97734.03
2023-02-12T22:14:14.675Z,97757.25
2023-02-12T22:16:42.270Z,97744.63
2023-02-12T22:19:10.107Z,97753.75
2023-02-12T22:21:40.381Z,97755.34
2023-02-12T22:24:12.066Z,97758.75
2023-02-12T22:26:41.289Z,97689.81
2023-02-12T22:29:10.531Z,97728.47
2023-02-12T22:31:40.338Z,97748.41
2023-02-12T22:34:11.827Z,97741.50
2023-02-12T22:36:40.205Z,97741.38
2023-02-12T22:39:08.209Z,97725.72
2023-02-12T22:41:35.673Z,97732.56
2023-02-12T22:44:05.861Z,97741.44
2023-02-12T22:46:35.961Z,97730.81
2023-02-12T22:49:03.451Z,97729.69
2023-02-12T22:51:32.674Z,97749.03
2023-02-12T22:54:00.845Z,97745.44
2023-02-12T22:56:28.513Z,97747.91
2023-02-12T22:58:56.868Z,97742.56
2023-02-12T23:01:26.593Z,97749.97
2023-02-12T23:03:54.712Z,97748.25
2023-02-12T23:06:24.515Z,97754.09
2023-02-12T23:08:53.542Z,97750.88
2023-02-12T23:11:21.813Z,97746.50
2023-02-12T23:13:49.246Z,97740.53
2023-02-12T23:16:16.855Z,97743.13
2023-02-12T23:18:45.693Z,97738.97
2023-02-12T23:21:13.363Z,97743.81
2023-02-12T23:23:41.003Z,97735.22
2023-02-12T23:26:08.435Z,97741.09
2023-02-12T23:28:36.064Z,97742.69
2023-02-12T23:31:03.692Z,97727.09
2023-02-12T23:33:31.385Z,97733.19
2023-02-12T23:36:00.579Z,97730.09
2023-02-12T23:38:28.098Z,97728.81
2023-02-12T23:40:56.115Z,97730.78
2023-02-12T23:43:23.772Z,97716.13
2023-02-12T23:45:51.223Z,97727.72
2023-02-12T23:48:18.839Z,97723.34
2023-02-12T23:50:48.720Z,97728.41
2023-02-12T23:53:18.956Z,97692.81
2023-02-12T23:55:46.551Z,97717.75
2023-02-12T23:58:13.994Z,97719.50
